createdAt,value
2023-03-20T00:02:01.067Z,38.25
2023-03-20T00:07:22.905Z,37.86
2023-03-20T00:12:46.954Z,38.34
2023-03-20T00:18:19.119Z,37.92
2023-03-20T00:23:40.829Z,38.19
2023-03-20T00:29:05.216Z,37.99
2023-03-20T00:34:29.825Z,38.35
2023-03-20T00:39:51.570Z,38.41
2023-03-20T00:45:19.633Z,38.29
2023-03-20T00:50:41.684Z,38.00
2023-03-20T00:56:04.261Z,37.95
2023-03-20T01:01:26.297Z,38.01
2023-03-20T01:06:48.210Z,37.95
2023-03-20T01:12:14.556Z,38.31
2023-03-20T01:17:36.304Z,37.98
2023-03-20T01:22:58.082Z,38.45
2023-03-20T01:28:23.394Z,38.15
2023-03-20T01:33:46.303Z,38.36
2023-03-20T01:39:09.845Z,38.15
2023-03-20T01:44:33.852Z,38.16
2023-03-20T01:50:17.126Z,38.13
2023-03-20T01:55:41.876Z,37.95
2023-03-20T02:01:06.588Z,38.24
2023-03-20T02:06:29.463Z,38.32
2023-03-20T02:11:52.537Z,38.46
2023-03-20T02:17:14.947Z,38.39
2023-03-20T02:22:49.699Z,38.07
2023-03-20T02:28:26.679Z,37.92
2023-03-20T02:34:17.573Z,37.94
2023-03-20T02:39:54.089Z,38.00
2023-03-20T02:45:47.953Z,38.04
2023-03-20T02:51:19.924Z,38.03
2023-03-20T02:56:50.136Z,37.96
2023-03-20T03:02:20.841Z,38.04
2023-03-20T03:07:47.200Z,38.19
2023-03-20T03:13:16.162Z,38.03
2023-03-20T03:18:41.221Z,38.10
2023-03-20T03:24:03.851Z,38.30
2023-03-20T03:29:31.516Z,38.12
2023-03-20T03:34:54.684Z,37.95
2023-03-20T03:40:28.217Z,38.40
2023-03-20T03:45:57.301Z,38.02
2023-03-20T03:51:24.353Z,37.93
2023-03-20T03:56:49.009Z,38.15
2023-03-20T04:02:11.115Z,38.09
2023-03-20T04:07:32.988Z,37.90
2023-03-20T04:12:54.823Z,38.14
2023-03-20T04:18:18.459Z,37.91
2023-03-20T04:23:40.187Z,38.15
2023-03-20T04:29:02.316Z,38.04
2023-03-20T04:34:25.037Z,38.19
2023-03-20T04:39:46.739Z,38.28
2023-03-20T04:45:09.359Z,38.01
2023-03-20T04:50:31.362Z,37.86
2023-03-20T04:55:53.131Z,38.01
2023-03-20T05:01:14.929Z,38.14
2023-03-20T05:06:36.930Z,38.24
2023-03-20T05:11:58.621Z,38.16
2023-03-20T05:17:21.619Z,37.95
2023-03-20T05:22:43.686Z,38.14
2023-03-20T05:28:05.804Z,38.27
2023-03-20T05:33:27.588Z,37.81
2023-03-20T05:38:49.336Z,38.14
2023-03-20T05:44:11.359Z,38.10
2023-03-20T05:49:33.020Z,38.19
2023-03-20T05:54:54.753Z,37.90
2023-03-20T06:00:17.530Z,38.20
2023-03-20T06:05:39.444Z,37.97
2023-03-20T06:11:01.211Z,38.02
2023-03-20T06:16:22.991Z,37.49
2023-03-20T06:21:44.695Z,36.97
2023-03-20T06:27:06.521Z,36.09
2023-03-20T06:32:28.266Z,35.73
2023-03-20T06:37:50.036Z,35.51
2023-03-20T06:43:12.642Z,35.69
2023-03-20T06:48:34.742Z,35.71
2023-03-20T06:53:56.844Z,35.73
2023-03-20T06:59:19.094Z,36.05
2023-03-20T07:04:41.407Z,36.14
2023-03-20T07:10:04.647Z,35.98
2023-03-20T07:15:27.424Z,36.28
2023-03-20T07:20:49.159Z,35.98
2023-03-20T07:26:10.910Z,35.97
2023-03-20T07:31:33.098Z,36.56
2023-03-20T07:36:54.792Z,36.36
2023-03-20T07:42:16.948Z,36.55
2023-03-20T07:47:38.752Z,36.35
2023-03-20T07:53:00.737Z,36.09
2023-03-20T07:58:22.694Z,36.16
2023-03-20T08:03:44.434Z,35.93
2023-03-20T08:09:06.868Z,36.18
2023-03-20T08:14:28.688Z,35.83
2023-03-20T08:19:50.452Z,35.89
2023-03-20T08:25:12.552Z,35.69
2023-03-20T08:30:34.262Z,35.68
2023-03-20T08:35:59.673Z,35.66
2023-03-20T08:41:21.481Z,35.67
2023-03-20T08:46:44.981Z,35.54
2023-03-20T08:52:07.161Z,35.87
2023-03-20T08:57:28.978Z,35.61
2023-03-20T09:02:51.580Z,35.80
2023-03-20T09:08:14.184Z,35.91
2023-03-20T09:13:36.123Z,36.00
2023-03-20T09:18:57.841Z,35.91
2023-03-20T09:24:19.599Z,35.91
2023-03-20T09:29:42.474Z,35.97
2023-03-20T09:35:05.262Z,36.29
2023-03-20T09:40:38.646Z,36.27
2023-03-20T09:46:28.305Z,36.05
2023-03-20T09:51:59.594Z,36.03
2023-03-20T09:57:26.307Z,36.06
2023-03-20T10:02:53.242Z,36.10
2023-03-20T10:08:17.593Z,35.79
2023-03-20T10:13:52.476Z,36.33
2023-03-20T10:19:28.031Z,35.84
2023-03-20T10:25:01.578Z,35.83
2023-03-20T10:30:45.284Z,35.99
2023-03-20T10:36:39.367Z,36.05
2023-03-20T10:42:04.036Z,35.87
2023-03-20T10:47:31.182Z,35.83
2023-03-20T10:52:56.200Z,35.99
2023-03-20T10:58:26.918Z,35.81
2023-03-20T11:03:48.682Z,36.11
2023-03-20T11:09:25.044Z,35.78
2023-03-20T11:14:46.942Z,35.97
2023-03-20T11:20:11.146Z,36.40
2023-03-20T11:25:37.165Z,36.03
2023-03-20T11:31:05.411Z,35.64
2023-03-20T11:36:33.400Z,35.95
2023-03-20T11:41:57.322Z,35.50
2023-03-20T11:47:25.294Z,35.33
2023-03-20T11:52:47.029Z,35.22
2023-03-20T11:58:16.762Z,35.02
2023-03-20T12:03:45.510Z,34.82
2023-03-20T12:09:36.562Z,35.29
2023-03-20T12:15:13.360Z,35.25
2023-03-20T12:20:38.559Z,35.50
2023-03-20T12:26:10.280Z,35.62
2023-03-20T12:31:47.011Z,36.06
2023-03-20T12:37:13.475Z,35.91
2023-03-20T12:43:01.328Z,36.12
2023-03-20T12:48:31.634Z,36.78
2023-03-20T12:54:10.744Z,36.69
2023-03-20T12:59:48.538Z,37.22
2023-03-20T13:05:54.124Z,38.11
2023-03-20T13:11:29.838Z,38.24
2023-03-20T13:17:10.552Z,38.41
2023-03-20T13:22:52.333Z,38.37
2023-03-20T13:28:43.100Z,38.29
2023-03-20T13:34:31.978Z,38.37
2023-03-20T13:40:14.918Z,38.30
2023-03-20T13:45:41.959Z,38.09
2023-03-20T13:51:25.246Z,37.72
2023-03-20T13:57:19.591Z,37.83
2023-03-20T14:03:09.738Z,38.00
2023-03-20T14:08:38.560Z,37.61
2023-03-20T14:14:08.655Z,37.31
2023-03-20T14:19:30.933Z,37.55
2023-03-20T14:25:04.044Z,37.14
2023-03-20T14:30:31.765Z,36.80
2023-03-20T14:36:19.330Z,37.07
2023-03-20T14:42:09.029Z,37.12
2023-03-20T14:47:49.046Z,36.61
2023-03-20T14:53:21.222Z,36.92
2023-03-20T14:59:06.967Z,37.14
2023-03-20T15:04:42.153Z,37.41
2023-03-20T15:10:05.534Z,37.67
2023-03-20T15:15:31.791Z,37.51
2023-03-20T15:20:56.525Z,38.12
2023-03-20T15:26:20.676Z,38.01
2023-03-20T15:31:42.994Z,38.19
2023-03-20T15:37:04.816Z,38.46
2023-03-20T15:42:27.800Z,39.87
2023-03-20T15:47:49.635Z,40.97
2023-03-20T15:53:19.255Z,41.23
2023-03-20T15:58:43.073Z,41.35
2023-03-20T16:04:05.206Z,41.51
2023-03-20T16:09:28.066Z,41.31
2023-03-20T16:14:51.683Z,41.48
2023-03-20T16:20:15.851Z,41.60
2023-03-20T16:25:38.142Z,41.59
2023-03-20T16:31:09.478Z,41.71
2023-03-20T16:36:34.442Z,41.39
2023-03-20T16:42:28.476Z,41.71
2023-03-20T16:47:50.419Z,41.78
2023-03-20T16:53:15.997Z,41.71
2023-03-20T16:58:41.270Z,41.81
2023-03-20T17:04:23.751Z,41.20
2023-03-20T17:10:18.152Z,41.54
2023-03-20T17:15:39.929Z,41.03
2023-03-20T17:21:01.634Z,41.16
2023-03-20T17:26:23.701Z,41.31
2023-03-20T17:31:46.218Z,41.48
2023-03-20T17:37:13.913Z,41.43
2023-03-20T17:42:35.680Z,40.90
2023-03-20T17:47:57.403Z,40.73
2023-03-20T17:53:25.382Z,40.38
2023-03-20T17:58:47.357Z,40.48
2023-03-20T18:04:09.243Z,40.46
2023-03-20T18:09:33.929Z,40.72
2023-03-20T18:14:55.774Z,40.37
2023-03-20T18:20:25.882Z,40.58
2023-03-20T18:25:47.566Z,40.77
2023-03-20T18:31:11.111Z,40.93
2023-03-20T18:36:33.224Z,41.33
2023-03-20T18:41:54.929Z,40.79
2023-03-20T18:47:16.831Z,41.38
2023-03-20T18:52:38.621Z,41.25
2023-03-20T18:58:04.176Z,41.50
2023-03-20T19:03:25.954Z,42.02
2023-03-20T19:08:48.727Z,41.86
2023-03-20T19:14:10.423Z,41.76
2023-03-20T19:19:32.155Z,42.21
2023-03-20T19:24:53.965Z,42.35
2023-03-20T19:30:27.326Z,42.38
2023-03-20T19:36:04.997Z,42.38
2023-03-20T19:41:28.921Z,42.07
2023-03-20T19:46:50.839Z,41.95
2023-03-20T19:52:29.194Z,41.94
2023-03-20T19:57:52.002Z,41.16
2023-03-20T20:03:19.997Z,41.08
2023-03-20T20:08:48.469Z,40.46
2023-03-20T20:14:14.647Z,39.79
2023-03-20T20:19:36.707Z,39.91
2023-03-20T20:24:58.572Z,39.42
2023-03-20T20:30:21.080Z,39.33
2023-03-20T20:36:10.604Z,39.52
2023-03-20T20:41:26.179Z,39.38
2023-03-20T20:46:47.933Z,39.45
2023-03-20T20:52:10.237Z,40.08
2023-03-20T20:57:32.422Z,39.84
2023-03-20T21:02:54.291Z,40.02
2023-03-20T21:08:18.636Z,40.42
2023-03-20T21:13:40.950Z,40.69
2023-03-20T21:19:02.832Z,40.39
2023-03-20T21:24:34.398Z,40.89
2023-03-20T21:29:57.852Z,40.73
2023-03-20T21:35:19.571Z,40.64
2023-03-20T21:40:42.374Z,40.94
2023-03-20T21:52:41.907Z,41.00
2023-03-20T21:58:16.970Z,40.66
2023-03-20T22:03:18.355Z,40.73
2023-03-20T22:15:20.113Z,40.78
2023-03-20T22:21:06.200Z,41.25
2023-03-20T22:27:05.307Z,40.94
2023-03-20T22:32:18.614Z,40.88
2023-03-20T22:48:44.316Z,40.97
2023-03-20T22:54:06.549Z,41.15
2023-03-20T22:59:28.559Z,40.87
2023-03-20T23:04:52.661Z,41.20
2023-03-20T23:10:14.592Z,40.84
2023-03-20T23:15:36.333Z,41.18
2023-03-20T23:20:59.163Z,40.81
2023-03-20T23:26:22.065Z,40.84
2023-03-20T23:31:43.817Z,40.89
2023-03-20T23:37:05.556Z,41.20
2023-03-20T23:42:30.765Z,41.35
2023-03-20T23:47:52.921Z,41.22
2023-03-20T23:53:20.748Z,41.19
2023-03-20T23:58:54.966Z,41.10
